Aérodrome :
LOGIN :

S'inscrire | Disclaimer

   EN    FR    IT 

 










Légende :    VFR   VFR Marginal   IFR   IFR Intensif   IFR Très Intensif
Visi : 
Plafond : 
>= 8 km
>= 3000ft
5 à 8 km
1000 à 3000 ft
1500m à 5 km
500 à 1000 ft
800 à 1500m
200 à 500 ft
< 800m
< 200 ft
Symboles :   Orages  Brouillard  Fortes neiges  Fortes précipitations  Vent > 20 kt
SIGMETs :   Divers  Orages  Givrage  Turbulence  Onde Orograph.  Cendres Volcan.






- Altitude de l'aérodrome : 755 ft
- Code IATA : RWN


UKLR - Rivne

DERNIER METAR :
  • 251230Z 20005MPS 9999 OVC024 04/02 Q1002 R11/190060 NOSIG

METARs EXPIRÉS :
  • 251200Z 20006MPS 9999 FEW024CB BKN024 03/02 Q1003 R11/190060 NOSIG
  • 251130Z 20006MPS 9999 SCT024 SCT024CB 03/02 Q1003 R11/190060 NOSIG
  • 251100Z 20006MPS 9999 SCT023 SCT023CB 03/02 Q1003 R11/190060 NOSIG
  • 251030Z 20005MPS 9999 SCT021 SCT021CB 02/02 Q1004 R11/190060 NOSIG
  • 251000Z 20006MPS 9999 BKN009 BKN022CB 02/01 Q1004 R11/190060 NOSIG

TAF TAF UKLR
Valide du 25 à 12h jusqu'au 25 à 21h UTC


251108Z 2512/2521 20007G12MPS 9999 BKN010 SCT013CB TX07/2515Z TN04/2512Z
TEMPO 2512/2521 23009G14MPS 2100 -SHRA BKN007 BKN013CB



MET'MAP, la Météo Aéronautique d'un coup d'oeil ! - Copyright ORBIFLY Décembre 2007 - Disclaimer

ORBIFLY MET'MAP TEAM :

Programmation & Développement : Alexandra Zaïnal
Sur une idée originale de : Baudouin d'Aumeries
Assistance à la programmation : Marc-Olivier Méhu
Soutien technique & logistique : Manuel Goepfert

Contact : metmap@orbifly.com




SOURCES & CREDITS :

   NOAA